Time;durP1;ratioP1;P1;durP2;ratioP2;P2;SDS_P1;SDS_P2;PMS_P1;PMS_P2;Temp;Humidity;BMP_temperature;BMP_pressure;BME280_temperature;BME280_humidity;BME280_pressure;Samples;Min_cycle;Max_cycle;Signal;HPM_P1;HPM_P2
2021/04/09 00:02:21;;;;;;;13.75;10.40;;;3.00;58.70;;;;;;5050067;28;20220;-79
2021/04/09 00:04:48;;;;;;;9.10;8.20;;;3.00;58.70;;;;;;5051825;28;20204;-79
2021/04/09 00:07:15;;;;;;;10.20;9.00;;;3.10;58.70;;;;;;5051500;28;20369;-79
2021/04/09 00:09:42;;;;;;;10.43;9.13;;;3.00;58.90;;;;;;5045447;28;20211;-79
2021/04/09 00:12:09;;;;;;;11.85;9.32;;;3.10;58.90;;;;;;5048729;28;20214;-79
2021/04/09 00:14:36;;;;;;;9.63;8.73;;;3.00;58.80;;;;;;5047359;28;20658;-79
2021/04/09 00:17:04;;;;;;;10.75;9.15;;;2.90;59.20;;;;;;5050989;28;20224;-79
2021/04/09 00:19:31;;;;;;;12.38;9.25;;;2.90;59.10;;;;;;5038883;28;20277;-79
2021/04/09 00:21:57;;;;;;;11.68;8.27;;;2.80;59.00;;;;;;5047441;28;20207;-79
2021/04/09 00:24:25;;;;;;;10.52;9.00;;;2.90;59.00;;;;;;5048093;28;20241;-79
2021/04/09 00:26:52;;;;;;;10.82;8.60;;;2.80;59.20;;;;;;5046818;28;20215;-79
2021/04/09 00:29:18;;;;;;;18.40;10.70;;;2.80;59.30;;;;;;5056533;28;20731;-79
2021/04/09 00:31:44;;;;;;;13.27;9.10;;;2.80;59.30;;;;;;5045767;28;20302;-79
2021/04/09 00:34:12;;;;;;;15.20;9.40;;;2.80;59.30;;;;;;5055203;28;20203;-79
2021/04/09 00:36:38;;;;;;;12.50;9.50;;;2.70;59.30;;;;;;5046383;28;20252;-78
2021/04/09 00:39:06;;;;;;;12.05;8.75;;;2.70;59.60;;;;;;5049905;28;20258;-79
2021/04/09 00:41:33;;;;;;;11.95;9.40;;;2.80;59.60;;;;;;5037135;28;20196;-79
2021/04/09 00:43:59;;;;;;;12.82;9.52;;;2.80;59.40;;;;;;5048966;28;20262;-79
2021/04/09 00:46:26;;;;;;;13.70;9.80;;;2.80;59.30;;;;;;5046200;28;20231;-79
2021/04/09 00:48:52;;;;;;;10.35;8.77;;;2.90;59.30;;;;;;5048899;28;20239;-79
2021/04/09 00:51:22;;;;;;;14.48;9.02;;;2.80;59.20;;;;;;5047069;28;20661;-79
2021/04/09 00:53:49;;;;;;;13.43;10.35;;;2.80;59.30;;;;;;5048000;28;20212;-79
2021/04/09 00:56:19;;;;;;;9.77;8.77;;;2.80;59.10;;;;;;5057449;28;20818;-79
2021/04/09 00:58:46;;;;;;;10.63;9.10;;;2.70;59.10;;;;;;5043645;28;20595;-80
2021/04/09 01:01:12;;;;;;;11.43;9.23;;;2.70;59.70;;;;;;5048124;28;20212;-79
2021/04/09 01:03:40;;;;;;;14.70;10.70;;;2.60;59.50;;;;;;5041518;28;20204;-79
2021/04/09 01:06:08;;;;;;;11.25;8.55;;;2.60;59.50;;;;;;5053978;28;20207;-79
2021/04/09 01:08:37;;;;;;;9.63;8.60;;;2.60;59.50;;;;;;5045948;28;20200;-79
2021/04/09 01:11:06;;;;;;;12.73;9.80;;;2.60;59.40;;;;;;5045221;28;20692;-79
2021/04/09 01:13:33;;;;;;;12.68;9.43;;;2.60;59.50;;;;;;5049269;28;20199;-79
2021/04/09 01:16:00;;;;;;;12.27;9.23;;;2.60;59.50;;;;;;5047127;28;20220;-79
2021/04/09 01:18:33;;;;;;;9.45;8.50;;;2.50;59.40;;;;;;5045681;28;20291;-79
2021/04/09 01:21:10;;;;;;;9.18;8.27;;;2.50;59.60;;;;;;5043589;28;20208;-79
2021/04/09 01:23:50;;;;;;;8.98;8.07;;;2.50;59.60;;;;;;5041779;28;20195;-79
2021/04/09 01:26:59;;;;;;;9.45;8.35;;;2.50;59.70;;;;;;5050351;28;20243;-79
2021/04/09 01:30:05;;;;;;;10.82;7.20;;;2.50;59.70;;;;;;5045669;28;20192;-79
2021/04/09 01:32:34;;;;;;;7.18;6.57;;;2.50;59.80;;;;;;5051819;28;20214;-79
2021/04/09 01:35:07;;;;;;;8.45;7.55;;;2.50;59.70;;;;;;5042808;28;20201;-79
2021/04/09 01:37:39;;;;;;;8.90;7.38;;;2.50;59.50;;;;;;5044283;28;20634;-79
2021/04/09 01:40:15;;;;;;;8.90;8.02;;;2.50;59.70;;;;;;5052171;28;20234;-79
2021/04/09 01:42:45;;;;;;;8.55;7.53;;;2.60;59.60;;;;;;5041993;28;20581;-79
2021/04/09 01:45:14;;;;;;;9.88;7.30;;;2.80;59.50;;;;;;5049680;28;20239;-79
2021/04/09 01:47:44;;;;;;;13.98;7.22;;;2.80;59.10;;;;;;5045800;28;20195;-79
2021/04/09 01:50:14;;;;;;;7.78;6.70;;;2.80;59.50;;;;;;5044357;28;20192;-79
2021/04/09 01:52:44;;;;;;;8.85;7.43;;;2.60;58.80;;;;;;5039368;28;20203;-79
2021/04/09 01:55:15;;;;;;;10.15;6.95;;;2.60;59.30;;;;;;5050587;28;20440;-79
2021/04/09 01:57:44;;;;;;;7.97;6.43;;;2.70;59.30;;;;;;5048816;28;20259;-79
2021/04/09 02:00:16;;;;;;;8.35;6.82;;;2.60;59.10;;;;;;5056782;28;20228;-79
2021/04/09 02:02:46;;;;;;;7.57;6.75;;;2.50;59.30;;;;;;5041643;28;20212;-79
2021/04/09 02:05:16;;;;;;;10.77;8.57;;;2.60;59.30;;;;;;5049102;28;20206;-79
2021/04/09 02:07:45;;;;;;;8.73;7.32;;;2.70;59.20;;;;;;5048540;28;20219;-79
2021/04/09 02:10:15;;;;;;;10.00;6.93;;;2.70;59.60;;;;;;5051321;28;20665;-80
2021/04/09 02:12:44;;;;;;;10.88;7.50;;;2.80;59.10;;;;;;5051769;28;20599;-79
2021/04/09 02:15:14;;;;;;;8.57;7.68;;;2.70;58.80;;;;;;5049318;28;20728;-79
2021/04/09 02:17:41;;;;;;;7.82;6.50;;;2.80;59.00;;;;;;5049425;28;20604;-79
2021/04/09 02:20:11;;;;;;;7.30;6.38;;;2.90;59.00;;;;;;5056303;28;20199;-79
2021/04/09 02:22:38;;;;;;;8.80;6.05;;;2.90;58.90;;;;;;5048837;28;20215;-79
2021/04/09 02:25:06;;;;;;;7.75;6.95;;;2.90;58.90;;;;;;5053451;28;20200;-79
2021/04/09 02:27:33;;;;;;;9.70;6.43;;;2.80;58.70;;;;;;5045404;28;20207;-80
2021/04/09 02:30:00;;;;;;;8.38;7.22;;;2.80;58.90;;;;;;5052623;28;20702;-79
2021/04/09 02:32:27;;;;;;;7.22;6.40;;;2.80;58.90;;;;;;5044570;28;20559;-79
2021/04/09 02:34:53;;;;;;;10.25;6.03;;;2.70;59.00;;;;;;5058158;28;20192;-79
2021/04/09 02:37:22;;;;;;;14.57;7.22;;;2.80;59.10;;;;;;5049662;28;20239;-79
2021/04/09 02:39:53;;;;;;;11.50;6.00;;;2.80;58.90;;;;;;5049731;28;20223;-79
2021/04/09 02:42:20;;;;;;;5.90;5.30;;;2.90;58.80;;;;;;5050039;28;20566;-80
2021/04/09 02:44:46;;;;;;;8.30;7.05;;;3.00;58.80;;;;;;5056925;28;20219;-79
2021/04/09 02:47:17;;;;;;;13.40;6.88;;;3.00;58.70;;;;;;5052185;28;20215;-79
2021/04/09 02:49:47;;;;;;;7.75;6.55;;;3.00;58.60;;;;;;5050866;28;20239;-78
2021/04/09 02:52:16;;;;;;;7.95;6.10;;;3.10;58.50;;;;;;5050751;28;20677;-79
2021/04/09 02:54:49;;;;;;;10.23;6.43;;;3.00;58.30;;;;;;5046103;28;20196;-79
2021/04/09 02:57:16;;;;;;;10.40;6.35;;;2.90;58.20;;;;;;5052222;28;20623;-79
2021/04/09 02:59:43;;;;;;;10.48;6.43;;;2.80;58.10;;;;;;5051134;28;20197;-80
2021/04/09 03:02:12;;;;;;;7.20;5.55;;;2.70;58.40;;;;;;5050433;28;20218;-79
2021/04/09 03:04:40;;;;;;;6.60;6.00;;;2.70;58.50;;;;;;5047461;28;20211;-80
2021/04/09 03:07:07;;;;;;;7.97;6.00;;;2.80;59.00;;;;;;5051422;28;20279;-79
2021/04/09 03:09:33;;;;;;;6.72;5.50;;;2.90;58.70;;;;;;5049682;28;20188;-79
2021/04/09 03:12:01;;;;;;;7.15;5.88;;;2.90;58.50;;;;;;5046108;28;20287;-79
2021/04/09 03:14:29;;;;;;;9.32;6.93;;;2.90;58.50;;;;;;5058474;28;20200;-79
2021/04/09 03:17:01;;;;;;;10.18;5.57;;;3.00;58.50;;;;;;5042431;28;20216;-79
2021/04/09 03:19:27;;;;;;;8.10;5.88;;;2.90;58.30;;;;;;5057903;28;20204;-79
2021/04/09 03:21:53;;;;;;;8.27;5.80;;;2.90;58.50;;;;;;5046905;28;20200;-79
2021/04/09 03:24:20;;;;;;;6.40;5.80;;;2.90;58.30;;;;;;5049591;28;20200;-79
2021/04/09 03:26:46;;;;;;;8.15;6.22;;;2.90;58.20;;;;;;5049711;28;20231;-79
2021/04/09 03:29:13;;;;;;;7.78;5.22;;;3.00;58.20;;;;;;5052389;28;20208;-79
2021/04/09 03:31:40;;;;;;;13.02;6.55;;;3.00;58.00;;;;;;5055977;28;20188;-79
2021/04/09 03:34:06;;;;;;;7.18;5.78;;;3.00;58.00;;;;;;5046428;28;20200;-79
2021/04/09 03:36:33;;;;;;;5.43;4.82;;;3.00;57.90;;;;;;5056678;28;20212;-79
2021/04/09 03:38:59;;;;;;;7.00;5.60;;;3.10;57.90;;;;;;5042660;28;20196;-79
2021/04/09 03:41:25;;;;;;;6.35;5.75;;;3.00;58.30;;;;;;5046963;28;20230;-79
2021/04/09 03:43:52;;;;;;;8.23;5.68;;;3.10;58.30;;;;;;5055786;28;20595;-79
2021/04/09 03:46:19;;;;;;;5.47;4.70;;;3.00;57.70;;;;;;5046850;28;20232;-80
2021/04/09 03:48:45;;;;;;;9.18;5.45;;;3.00;58.20;;;;;;5052720;28;20196;-79
2021/04/09 03:51:12;;;;;;;7.35;6.03;;;3.00;58.00;;;;;;5048339;28;20575;-79
2021/04/09 03:53:39;;;;;;;8.00;5.75;;;3.10;57.90;;;;;;5050509;28;20196;-79
2021/04/09 03:56:06;;;;;;;7.28;5.93;;;3.00;58.00;;;;;;5049345;28;20615;-79
2021/04/09 03:58:32;;;;;;;6.30;5.70;;;2.90;57.70;;;;;;5048030;28;20254;-79
2021/04/09 04:00:59;;;;;;;8.77;6.57;;;3.00;58.20;;;;;;5053137;28;20638;-79
2021/04/09 04:03:26;;;;;;;9.50;6.00;;;3.00;58.00;;;;;;5046085;28;20692;-79
2021/04/09 04:05:52;;;;;;;6.57;5.95;;;2.80;57.90;;;;;;5058824;28;20204;-79
2021/04/09 04:08:19;;;;;;;6.85;6.18;;;2.90;58.10;;;;;;5046603;28;20232;-80
2021/04/09 04:10:45;;;;;;;7.35;6.13;;;3.00;58.10;;;;;;5051149;28;20203;-80
2021/04/09 04:13:12;;;;;;;10.43;6.07;;;3.00;58.30;;;;;;5044285;28;20665;-79
2021/04/09 04:15:38;;;;;;;7.95;6.32;;;3.20;58.00;;;;;;5052419;28;20204;-79
2021/04/09 04:18:05;;;;;;;7.68;5.95;;;3.10;57.60;;;;;;5046484;28;20255;-80
2021/04/09 04:20:32;;;;;;;10.30;7.15;;;3.10;57.60;;;;;;5051253;28;20223;-79
2021/04/09 04:22:59;;;;;;;13.05;6.63;;;3.10;57.80;;;;;;5049869;28;20204;-80
2021/04/09 04:25:25;;;;;;;9.90;7.07;;;3.10;57.60;;;;;;5045822;28;20204;-80
2021/04/09 04:27:52;;;;;;;7.20;6.28;;;3.10;57.50;;;;;;5053859;28;20237;-79
2021/04/09 04:30:19;;;;;;;9.65;6.55;;;3.00;57.50;;;;;;5047515;28;20197;-80
2021/04/09 04:32:46;;;;;;;8.80;6.95;;;3.00;57.60;;;;;;5048962;28;20199;-79
2021/04/09 04:35:13;;;;;;;8.40;6.68;;;3.10;57.70;;;;;;5049427;28;20235;-80
2021/04/09 04:37:40;;;;;;;9.00;7.05;;;3.10;57.50;;;;;;5050946;28;20580;-79
2021/04/09 04:40:08;;;;;;;8.45;7.32;;;3.00;57.80;;;;;;5048417;28;20191;-80
2021/04/09 04:42:34;;;;;;;8.32;7.20;;;3.10;57.60;;;;;;5051906;28;20678;-80
2021/04/09 04:45:01;;;;;;;9.02;6.43;;;3.10;57.60;;;;;;5050824;28;20197;-80
2021/04/09 04:47:27;;;;;;;9.55;6.82;;;3.00;57.30;;;;;;5045185;28;20234;-80
2021/04/09 04:49:54;;;;;;;8.90;7.45;;;3.00;58.10;;;;;;5051321;28;20203;-80
2021/04/09 04:52:20;;;;;;;10.18;7.35;;;3.10;57.60;;;;;;5044829;28;20224;-80
2021/04/09 04:54:47;;;;;;;12.27;8.93;;;3.00;57.60;;;;;;5049917;28;20204;-80
2021/04/09 04:57:14;;;;;;;13.30;8.45;;;3.10;58.00;;;;;;5044812;28;20555;-80
2021/04/09 04:59:40;;;;;;;12.10;8.90;;;3.20;58.10;;;;;;5054880;28;20226;-80
2021/04/09 05:02:07;;;;;;;10.43;7.28;;;3.10;57.90;;;;;;5050787;28;20213;-80
2021/04/09 05:04:33;;;;;;;12.43;8.05;;;3.10;57.90;;;;;;5052487;28;20195;-80
2021/04/09 05:07:00;;;;;;;11.02;8.45;;;3.10;57.80;;;;;;5053708;28;20200;-80
2021/04/09 05:09:26;;;;;;;10.85;7.35;;;3.20;57.80;;;;;;5047839;28;20665;-80
2021/04/09 05:11:54;;;;;;;9.63;7.72;;;3.30;57.70;;;;;;5048596;28;20203;-80
2021/04/09 05:14:20;;;;;;;10.93;8.55;;;3.40;57.80;;;;;;5050189;28;20192;-80
2021/04/09 05:16:46;;;;;;;11.52;8.82;;;3.40;57.60;;;;;;5055963;28;20239;-79
2021/04/09 05:19:16;;;;;;;11.63;8.10;;;3.50;57.60;;;;;;5041640;28;20227;-82
2021/04/09 05:21:42;;;;;;;24.80;7.60;;;3.60;57.50;;;;;;5047613;28;20640;-82
2021/04/09 05:24:09;;;;;;;10.80;7.78;;;3.60;57.40;;;;;;5045920;28;20260;-82
2021/04/09 05:26:36;;;;;;;12.52;7.35;;;3.70;57.70;;;;;;5052596;28;20200;-81
2021/04/09 05:29:03;;;;;;;11.05;8.00;;;3.80;57.20;;;;;;5045661;28;20200;-82
2021/04/09 05:31:32;;;;;;;8.05;7.22;;;3.90;57.20;;;;;;5049671;28;20710;-82
2021/04/09 05:33:58;;;;;;;16.52;8.65;;;4.00;57.10;;;;;;5050556;28;20228;-81
2021/04/09 05:36:48;;;;;;;12.95;7.85;;;4.00;57.10;;;;;;5052792;28;20228;-82
2021/04/09 05:39:15;;;;;;;10.85;8.23;;;4.20;57.70;;;;;;5050667;28;20277;-82
2021/04/09 05:41:41;;;;;;;12.00;7.63;;;4.20;57.10;;;;;;5049083;28;20696;-82
2021/04/09 05:44:09;;;;;;;10.45;7.88;;;4.30;56.90;;;;;;5052039;28;20198;-82
2021/04/09 05:46:37;;;;;;;10.88;8.57;;;4.50;56.80;;;;;;5048712;28;20195;-80
2021/04/09 05:49:06;;;;;;;12.00;8.70;;;4.50;56.60;;;;;;5049467;28;20200;-82
2021/04/09 05:51:35;;;;;;;10.07;6.78;;;4.60;56.60;;;;;;5051754;28;20196;-82
2021/04/09 05:54:03;;;;;;;13.85;8.57;;;4.70;56.50;;;;;;5046523;28;20204;-82
2021/04/09 05:56:47;;;;;;;11.00;8.98;;;4.80;56.20;;;;;;5052947;28;20704;-83
2021/04/09 05:59:16;;;;;;;13.38;7.40;;;4.80;56.00;;;;;;5049039;28;20192;-79
2021/04/09 06:01:43;;;;;;;12.18;7.43;;;5.00;56.20;;;;;;5051372;28;20227;-81
2021/04/09 06:04:12;;;;;;;7.90;7.07;;;5.10;56.00;;;;;;5046525;28;20868;-82
2021/04/09 06:06:38;;;;;;;7.57;6.80;;;5.10;55.60;;;;;;5051896;28;20200;-81
2021/04/09 06:09:05;;;;;;;9.20;6.90;;;5.10;55.40;;;;;;5052211;28;20196;-82
2021/04/09 06:11:32;;;;;;;10.18;6.20;;;5.10;55.50;;;;;;5049970;28;20200;-81
2021/04/09 06:13:59;;;;;;;9.15;6.93;;;5.30;55.50;;;;;;5052563;28;20203;-81
2021/04/09 06:16:27;;;;;;;8.23;6.40;;;5.50;55.10;;;;;;5046642;28;20743;-82
2021/04/09 06:18:54;;;;;;;9.48;6.95;;;5.50;54.90;;;;;;5051146;28;20574;-81
2021/04/09 06:21:20;;;;;;;9.02;7.07;;;5.70;54.80;;;;;;5049453;28;20254;-81
2021/04/09 06:23:47;;;;;;;6.72;5.57;;;5.70;54.70;;;;;;5051757;28;20596;-82
2021/04/09 06:26:14;;;;;;;6.00;5.40;;;5.80;54.40;;;;;;5050006;28;20208;-81
2021/04/09 06:28:42;;;;;;;7.38;6.15;;;5.80;54.40;;;;;;5050038;28;20227;-82
2021/04/09 06:31:11;;;;;;;7.07;5.85;;;5.90;54.30;;;;;;5046432;28;20287;-81
2021/04/09 06:33:39;;;;;;;10.00;5.80;;;6.00;54.20;;;;;;5046269;28;20670;-81
2021/04/09 06:37:02;;;;;;;8.18;6.78;;;6.10;54.20;;;;;;5048655;28;20203;-81
2021/04/09 06:39:29;;;;;;;10.18;6.72;;;6.30;54.00;;;;;;4991029;28;20208;-81
2021/04/09 06:41:56;;;;;;;8.23;6.57;;;6.40;53.90;;;;;;5003161;28;20681;-81
2021/04/09 06:44:23;;;;;;;7.38;5.35;;;6.40;53.50;;;;;;5046547;28;20231;-81
2021/04/09 06:46:50;;;;;;;8.27;5.20;;;6.40;53.40;;;;;;5049788;28;20678;-79
2021/04/09 06:49:18;;;;;;;8.60;6.10;;;6.50;53.20;;;;;;5051278;28;20200;-79
2021/04/09 06:51:46;;;;;;;8.98;6.60;;;6.60;53.50;;;;;;5046510;28;20192;-80
2021/04/09 06:54:15;;;;;;;10.85;5.88;;;6.60;53.30;;;;;;5045081;28;20200;-80
2021/04/09 06:56:43;;;;;;;6.55;5.85;;;6.80;53.00;;;;;;5050172;28;20596;-80
2021/04/09 06:59:16;;;;;;;5.63;5.03;;;7.00;52.90;;;;;;5048137;28;20236;-80
2021/04/09 07:01:45;;;;;;;9.30;4.72;;;7.10;52.50;;;;;;5049550;28;20208;-80
2021/04/09 07:04:12;;;;;;;10.93;6.07;;;7.30;52.80;;;;;;5054329;28;20286;-81
2021/04/09 07:06:40;;;;;;;5.85;5.20;;;7.30;52.00;;;;;;5043780;28;20200;-80
2021/04/09 07:09:06;;;;;;;5.53;4.80;;;7.40;51.20;;;;;;5049481;28;20789;-81
2021/04/09 07:11:36;;;;;;;8.38;5.55;;;7.60;51.40;;;;;;5050754;28;20200;-82
2021/04/09 07:14:03;;;;;;;8.60;5.47;;;7.70;50.70;;;;;;5048480;28;20196;-82
2021/04/09 07:16:29;;;;;;;5.50;4.68;;;7.80;50.50;;;;;;5049033;28;20208;-82
2021/04/09 07:18:59;;;;;;;7.53;5.45;;;7.90;50.60;;;;;;5052143;28;20192;-82
2021/04/09 07:21:28;;;;;;;6.38;5.20;;;8.10;50.30;;;;;;5050614;28;20196;-80
2021/04/09 07:24:20;;;;;;;7.03;6.32;;;8.20;50.20;;;;;;5045112;28;20337;-82
2021/04/09 07:26:48;;;;;;;9.60;5.22;;;8.00;49.30;;;;;;5045288;28;20204;-83
2021/04/09 07:29:34;;;;;;;5.93;5.22;;;8.20;50.10;;;;;;5050099;28;20203;-83
2021/04/09 07:32:25;;;;;;;7.03;4.85;;;8.40;49.70;;;;;;5048854;28;20198;-82
2021/04/09 07:34:53;;;;;;;11.25;6.20;;;8.60;49.50;;;;;;5048678;28;20195;-82
2021/04/09 07:37:20;;;;;;;6.97;5.40;;;8.70;49.40;;;;;;5050759;28;20247;-82
2021/04/09 07:39:53;;;;;;;8.45;4.95;;;8.80;49.20;;;;;;5050630;28;20262;-82
2021/04/09 07:42:28;;;;;;;5.47;4.90;;;8.90;48.40;;;;;;5051407;28;20196;-82
2021/04/09 07:44:58;;;;;;;6.22;5.63;;;9.00;48.80;;;;;;5050370;28;20237;-82
2021/04/09 07:47:25;;;;;;;8.65;5.55;;;9.20;48.40;;;;;;5051059;28;20269;-82
2021/04/09 07:50:03;;;;;;;6.20;5.00;;;9.30;47.80;;;;;;5050404;28;20196;-83
2021/04/09 07:52:39;;;;;;;8.68;5.80;;;9.40;47.90;;;;;;5047146;28;20196;-82
2021/04/09 07:55:18;;;;;;;7.45;5.25;;;9.60;47.30;;;;;;5046358;28;20254;-82
2021/04/09 07:57:47;;;;;;;8.40;6.50;;;9.70;47.00;;;;;;5050321;28;20224;-83
2021/04/09 08:00:22;;;;;;;9.75;5.68;;;9.80;46.90;;;;;;5049890;28;20739;-84
2021/04/09 08:02:50;;;;;;;7.03;5.00;;;9.90;46.70;;;;;;5049957;28;20203;-84
2021/04/09 08:05:18;;;;;;;7.80;6.05;;;10.10;46.00;;;;;;5047976;28;20258;-84
2021/04/09 08:07:45;;;;;;;8.13;5.80;;;10.20;45.70;;;;;;5054814;28;20589;-84
2021/04/09 08:10:14;;;;;;;8.70;5.57;;;10.40;45.60;;;;;;5049088;28;20192;-84
2021/04/09 08:12:42;;;;;;;6.95;4.90;;;10.50;45.40;;;;;;5050381;28;20196;-85
2021/04/09 08:15:15;;;;;;;5.93;5.10;;;10.60;45.40;;;;;;5047339;28;20192;-84
2021/04/09 08:17:42;;;;;;;6.95;5.47;;;10.70;45.60;;;;;;5044340;28;20603;-84
2021/04/09 08:20:13;;;;;;;5.80;4.30;;;10.80;45.50;;;;;;5045557;28;20196;-84
2021/04/09 08:22:46;;;;;;;4.50;4.10;;;10.50;44.90;;;;;;5041610;28;20680;-84
2021/04/09 08:25:15;;;;;;;5.77;4.30;;;10.30;43.90;;;;;;5050294;28;20634;-83
2021/04/09 08:27:46;;;;;;;6.37;4.40;;;10.50;44.30;;;;;;5054171;28;21218;-82
2021/04/09 08:30:15;;;;;;;6.30;4.25;;;10.80;44.30;;;;;;5048277;28;20741;-84
2021/04/09 08:32:42;;;;;;;9.77;4.37;;;10.70;43.00;;;;;;5049138;28;20207;-84
2021/04/09 08:35:10;;;;;;;5.87;4.17;;;10.90;43.90;;;;;;5045739;28;20627;-84
2021/04/09 08:37:37;;;;;;;4.77;4.37;;;10.80;43.00;;;;;;5047065;28;20670;-84
2021/04/09 08:40:05;;;;;;;4.47;4.07;;;11.00;43.20;;;;;;5042599;28;20836;-85
2021/04/09 08:42:34;;;;;;;5.23;4.33;;;11.20;43.50;;;;;;5046009;28;20629;-85
2021/04/09 08:45:01;;;;;;;5.47;4.00;;;11.20;43.30;;;;;;5047902;28;20642;-85
2021/04/09 08:47:29;;;;;;;4.40;4.00;;;11.50;43.60;;;;;;5048511;28;20688;-84
2021/04/09 08:49:57;;;;;;;6.10;4.30;;;11.40;43.80;;;;;;5048252;28;20633;-83
2021/04/09 08:52:24;;;;;;;5.50;4.60;;;11.40;43.60;;;;;;5041817;28;20847;-84
2021/04/09 08:54:52;;;;;;;6.07;4.53;;;11.50;43.40;;;;;;5045795;28;20717;-83
2021/04/09 08:57:36;;;;;;;6.43;4.33;;;11.60;43.80;;;;;;5045476;28;20212;-83
2021/04/09 09:00:11;;;;;;;4.70;4.20;;;11.60;43.40;;;;;;5043092;28;20676;-84
2021/04/09 09:02:44;;;;;;;5.73;3.97;;;11.80;43.20;;;;;;5045088;28;20661;-83
2021/04/09 09:05:13;;;;;;;5.87;4.07;;;11.80;42.40;;;;;;5048075;28;20662;-84
2021/04/09 09:08:00;;;;;;;8.30;4.70;;;11.90;42.30;;;;;;5043529;28;20622;-83
2021/04/09 09:10:45;;;;;;;6.33;4.00;;;11.90;42.30;;;;;;5039348;28;21072;-84
2021/04/09 09:13:31;;;;;;;5.73;4.03;;;12.00;42.20;;;;;;5043407;28;20670;-83
2021/04/09 09:16:23;;;;;;;3.90;3.60;;;12.20;41.90;;;;;;5046209;28;21265;-83
2021/04/09 09:18:52;;;;;;;4.20;3.80;;;11.80;41.80;;;;;;5047369;28;20680;-85
2021/04/09 09:21:36;;;;;;;4.40;3.90;;;11.70;41.20;;;;;;5050436;28;21207;-85
2021/04/09 09:24:18;;;;;;;3.87;3.47;;;11.90;41.90;;;;;;5044299;28;20709;-85
2021/04/09 09:26:46;;;;;;;3.70;3.40;;;11.70;40.20;;;;;;5047045;28;21054;-86
2021/04/09 09:29:16;;;;;;;4.87;4.00;;;11.70;40.10;;;;;;5047989;28;20669;-86
2021/04/09 09:31:54;;;;;;;3.60;3.30;;;12.00;40.90;;;;;;5044585;28;20630;-86
2021/04/09 09:34:35;;;;;;;4.00;3.13;;;12.40;40.90;;;;;;5047533;28;20664;-85
2021/04/09 09:37:06;;;;;;;4.00;3.20;;;12.50;40.40;;;;;;5042515;28;20714;-85
2021/04/09 09:39:37;;;;;;;5.73;3.70;;;12.70;39.60;;;;;;5049066;28;21205;-86
2021/04/09 09:42:06;;;;;;;4.00;3.00;;;12.90;39.90;;;;;;5042038;28;20634;-85
2021/04/09 09:44:41;;;;;;;4.97;2.97;;;12.90;39.20;;;;;;5048358;28;20642;-85
2021/04/09 09:47:18;;;;;;;3.73;3.40;;;12.80;39.10;;;;;;5044587;28;20626;-85
2021/04/09 09:50:12;;;;;;;3.17;2.87;;;12.70;40.20;;;;;;5048525;28;20630;-85
2021/04/09 09:52:43;;;;;;;4.20;3.37;;;12.50;39.00;;;;;;5040258;28;20910;-86
2021/04/09 09:55:11;;;;;;;4.37;4.03;;;12.60;39.10;;;;;;5051451;28;20610;-83
2021/04/09 09:57:47;;;;;;;4.23;3.30;;;12.60;38.50;;;;;;5050185;28;20774;-83
2021/04/09 10:00:24;;;;;;;3.60;2.90;;;12.90;39.60;;;;;;5051133;28;20626;-83
2021/04/09 10:02:51;;;;;;;5.27;3.33;;;12.80;38.30;;;;;;5048047;28;20721;-81
2021/04/09 10:05:20;;;;;;;3.47;3.10;;;13.20;38.80;;;;;;5046101;28;20730;-82
2021/04/09 10:07:47;;;;;;;3.23;2.97;;;13.20;38.10;;;;;;5049355;28;20708;-83
2021/04/09 10:10:13;;;;;;;4.40;3.70;;;13.00;38.20;;;;;;5046221;28;21032;-84
2021/04/09 10:12:40;;;;;;;3.90;3.10;;;13.40;39.20;;;;;;5041629;28;20629;-83
2021/04/09 10:15:07;;;;;;;3.50;2.90;;;13.50;37.90;;;;;;5050782;28;20655;-83
2021/04/09 10:17:35;;;;;;;3.83;3.53;;;13.70;38.30;;;;;;5042462;28;20702;-84
2021/04/09 10:20:04;;;;;;;7.53;3.90;;;13.80;38.10;;;;;;5055312;28;20614;-84
2021/04/09 10:22:31;;;;;;;3.60;2.90;;;13.90;37.20;;;;;;5048206;28;20714;-84
2021/04/09 10:24:57;;;;;;;3.00;2.80;;;13.80;38.30;;;;;;5050478;28;21053;-84
2021/04/09 10:27:24;;;;;;;4.57;3.60;;;13.80;38.10;;;;;;5059522;28;20630;-84
2021/04/09 10:29:50;;;;;;;3.60;3.30;;;13.90;37.80;;;;;;5045573;28;20678;-84
2021/04/09 10:32:18;;;;;;;4.37;3.07;;;13.90;37.20;;;;;;5048331;28;20635;-84
2021/04/09 10:34:51;;;;;;;3.27;2.63;;;13.80;36.70;;;;;;5047182;28;20634;-84
2021/04/09 10:37:22;;;;;;;6.10;3.97;;;13.80;38.20;;;;;;5048670;28;20645;-85
2021/04/09 10:39:49;;;;;;;3.97;3.10;;;14.00;37.90;;;;;;5048923;28;20642;-85
2021/04/09 10:42:15;;;;;;;4.63;3.40;;;14.00;38.50;;;;;;5052174;28;20655;-85
2021/04/09 10:44:42;;;;;;;5.27;3.10;;;14.00;36.80;;;;;;5049208;28;21202;-84
2021/04/09 10:47:09;;;;;;;4.60;3.47;;;13.60;36.80;;;;;;5051295;28;20639;-84
2021/04/09 10:49:37;;;;;;;3.13;2.87;;;13.20;36.80;;;;;;5048277;28;20622;-84
2021/04/09 10:52:06;;;;;;;5.47;4.00;;;13.70;38.40;;;;;;5053763;28;21427;-83
2021/04/09 10:54:35;;;;;;;6.67;3.40;;;13.90;37.80;;;;;;5043843;28;20611;-84
2021/04/09 10:57:03;;;;;;;5.40;3.60;;;13.60;37.60;;;;;;5054568;28;20662;-83
2021/04/09 10:59:31;;;;;;;4.30;3.20;;;13.30;37.20;;;;;;5044311;28;20630;-84
2021/04/09 11:01:59;;;;;;;7.00;3.23;;;13.10;38.30;;;;;;5046252;28;21092;-84
2021/04/09 11:04:27;;;;;;;4.57;2.80;;;13.30;37.50;;;;;;5051013;28;20721;-84
2021/04/09 11:06:57;;;;;;;4.03;3.30;;;13.60;37.50;;;;;;5046258;28;20623;-84
2021/04/09 11:09:38;;;;;;;3.97;2.97;;;13.50;37.20;;;;;;5046350;28;20667;-83
2021/04/09 11:12:22;;;;;;;6.70;3.13;;;13.30;37.10;;;;;;5054955;28;20655;-84
2021/04/09 11:14:49;;;;;;;3.80;3.27;;;13.50;38.00;;;;;;5039911;28;20681;-84
2021/04/09 11:17:24;;;;;;;5.77;3.53;;;13.60;37.40;;;;;;5050258;28;20666;-84
2021/04/09 11:19:54;;;;;;;3.30;3.00;;;14.10;38.30;;;;;;5046249;28;20623;-84
2021/04/09 11:22:22;;;;;;;5.60;3.80;;;14.50;38.80;;;;;;5052785;28;20718;-84
2021/04/09 11:24:58;;;;;;;4.60;3.70;;;14.70;38.70;;;;;;5048354;28;20630;-83
2021/04/09 11:27:26;;;;;;;4.80;3.83;;;14.50;37.70;;;;;;5058390;28;21198;-82
2021/04/09 11:30:07;;;;;;;3.13;2.83;;;14.70;37.20;;;;;;5051184;28;20721;-83
2021/04/09 11:32:39;;;;;;;3.93;3.37;;;14.70;38.00;;;;;;5051734;28;20685;-83
2021/04/09 11:35:09;;;;;;;4.73;3.30;;;14.90;37.70;;;;;;5057412;28;20639;-82
2021/04/09 11:37:43;;;;;;;5.30;3.20;;;14.90;37.40;;;;;;5049471;28;20664;-83
2021/04/09 11:40:12;;;;;;;4.07;3.50;;;15.10;37.90;;;;;;5052948;28;20634;-83
2021/04/09 11:42:39;;;;;;;3.27;2.97;;;15.10;38.30;;;;;;5035324;28;20983;-83
2021/04/09 11:45:08;;;;;;;4.80;3.03;;;15.50;38.40;;;;;;5048211;28;20626;-82
2021/04/09 11:47:36;;;;;;;6.23;2.87;;;15.30;35.60;;;;;;5049164;28;20638;-82
2021/04/09 11:50:09;;;;;;;3.70;3.10;;;15.30;36.60;;;;;;5047937;28;21092;-82
2021/04/09 11:52:59;;;;;;;3.37;3.07;;;14.90;34.70;;;;;;5039861;28;20639;-82
2021/04/09 11:55:29;;;;;;;2.30;2.13;;;14.50;35.00;;;;;;5048615;28;20634;-83
2021/04/09 11:57:56;;;;;;;3.00;2.50;;;14.50;35.20;;;;;;5049114;28;20706;-83
2021/04/09 12:00:25;;;;;;;2.70;2.20;;;14.40;34.70;;;;;;5052008;28;20650;-83
2021/04/09 12:02:57;;;;;;;4.63;2.60;;;14.90;35.10;;;;;;5050923;28;20652;-84
2021/04/09 12:05:29;;;;;;;4.27;2.47;;;15.40;35.10;;;;;;5049271;28;20647;-84
2021/04/09 12:07:55;;;;;;;2.40;2.20;;;16.50;35.10;;;;;;5052872;28;20744;-84
2021/04/09 12:10:24;;;;;;;3.40;3.00;;;17.50;33.90;;;;;;5051044;28;20680;-86
2021/04/09 12:12:51;;;;;;;2.03;1.77;;;18.80;32.10;;;;;;5052098;28;20620;-85
2021/04/09 12:15:22;;;;;;;2.73;2.27;;;19.10;31.50;;;;;;5052869;28;20620;-86
2021/04/09 12:17:50;;;;;;;3.53;2.00;;;18.70;32.60;;;;;;5049721;28;20674;-85
2021/04/09 12:20:18;;;;;;;5.83;2.83;;;18.40;30.40;;;;;;5050241;28;20624;-84
2021/04/09 12:22:45;;;;;;;4.30;2.40;;;18.70;31.10;;;;;;5051754;28;20632;-84
2021/04/09 12:25:14;;;;;;;4.70;2.47;;;18.50;31.40;;;;;;5049532;28;20720;-84
2021/04/09 12:27:42;;;;;;;3.17;2.53;;;18.80;31.70;;;;;;5049890;28;21294;-85
2021/04/09 12:30:15;;;;;;;2.57;2.37;;;19.00;31.50;;;;;;5050473;28;20610;-85
2021/04/09 12:32:42;;;;;;;2.70;2.20;;;19.20;31.40;;;;;;5048467;28;20645;-84
2021/04/09 12:35:11;;;;;;;4.97;2.43;;;19.30;31.40;;;;;;5054899;28;20663;-84
2021/04/09 12:37:39;;;;;;;2.17;1.97;;;19.00;30.60;;;;;;5045933;28;20650;-83
2021/04/09 12:40:07;;;;;;;2.90;2.57;;;18.40;31.50;;;;;;5048505;28;20664;-83
2021/04/09 12:42:34;;;;;;;2.97;1.90;;;18.10;31.80;;;;;;5048928;28;20685;-84
2021/04/09 12:45:00;;;;;;;3.63;2.20;;;18.10;31.80;;;;;;5051859;28;20616;-84
2021/04/09 12:47:28;;;;;;;2.90;2.50;;;18.20;32.70;;;;;;5051592;28;20626;-85
2021/04/09 12:49:54;;;;;;;2.43;2.03;;;18.30;32.30;;;;;;5046274;28;20618;-84
2021/04/09 12:52:21;;;;;;;2.80;2.50;;;18.30;32.00;;;;;;5050972;28;20664;-84
2021/04/09 12:54:48;;;;;;;2.73;2.50;;;18.40;31.50;;;;;;5048866;28;21020;-84
2021/04/09 12:57:14;;;;;;;2.17;2.07;;;18.60;31.30;;;;;;5046886;28;20678;-84
2021/04/09 12:59:41;;;;;;;2.70;2.50;;;18.80;30.30;;;;;;5049595;28;20675;-85
2021/04/09 13:02:09;;;;;;;2.70;2.50;;;19.40;31.50;;;;;;5050160;28;20652;-85
2021/04/09 13:04:37;;;;;;;4.53;2.70;;;20.00;31.50;;;;;;5047945;28;20634;-85